sensor_id;sensor_type;location;lat;lon;timestamp;P1;durP1;ratioP1;P2;durP2;ratioP2
57345;SDS011;43181;50.974;18.244;2022-09-06T00:01:42;4.10;;;2.20;;
57345;SDS011;43181;50.974;18.244;2022-09-06T00:04:07;4.10;;;1.80;;
57345;SDS011;43181;50.974;18.244;2022-09-06T00:06:33;4.10;;;2.00;;
57345;SDS011;43181;50.974;18.244;2022-09-06T00:09:01;4.30;;;2.10;;
57345;SDS011;43181;50.974;18.244;2022-09-06T00:11:27;3.30;;;1.90;;
57345;SDS011;43181;50.974;18.244;2022-09-06T00:13:52;3.80;;;2.10;;
57345;SDS011;43181;50.974;18.244;2022-09-06T00:16:19;3.30;;;2.00;;
57345;SDS011;43181;50.974;18.244;2022-09-06T00:18:48;5.30;;;2.20;;
57345;SDS011;43181;50.974;18.244;2022-09-06T00:21:16;5.00;;;2.00;;
57345;SDS011;43181;50.974;18.244;2022-09-06T00:24:00;3.10;;;2.00;;
57345;SDS011;43181;50.974;18.244;2022-09-06T00:26:25;6.60;;;2.20;;
57345;SDS011;43181;50.974;18.244;2022-09-06T00:28:51;4.20;;;2.10;;
57345;SDS011;43181;50.974;18.244;2022-09-06T00:31:18;3.20;;;1.90;;
57345;SDS011;43181;50.974;18.244;2022-09-06T00:33:45;3.00;;;1.70;;
57345;SDS011;43181;50.974;18.244;2022-09-06T00:36:11;4.60;;;2.20;;
57345;SDS011;43181;50.974;18.244;2022-09-06T00:38:37;4.80;;;2.20;;
57345;SDS011;43181;50.974;18.244;2022-09-06T00:41:04;3.60;;;2.10;;
57345;SDS011;43181;50.974;18.244;2022-09-06T00:43:30;8.40;;;2.60;;
57345;SDS011;43181;50.974;18.244;2022-09-06T00:45:57;7.40;;;2.40;;
57345;SDS011;43181;50.974;18.244;2022-09-06T00:48:23;6.90;;;2.60;;
57345;SDS011;43181;50.974;18.244;2022-09-06T00:50:50;3.90;;;2.30;;
57345;SDS011;43181;50.974;18.244;2022-09-06T00:53:17;5.80;;;2.30;;
57345;SDS011;43181;50.974;18.244;2022-09-06T00:55:43;4.10;;;2.10;;
57345;SDS011;43181;50.974;18.244;2022-09-06T00:58:10;3.20;;;2.20;;
57345;SDS011;43181;50.974;18.244;2022-09-06T01:00:35;5.10;;;2.30;;
57345;SDS011;43181;50.974;18.244;2022-09-06T01:03:02;4.40;;;2.10;;
57345;SDS011;43181;50.974;18.244;2022-09-06T01:11:29;4.10;;;2.30;;
57345;SDS011;43181;50.974;18.244;2022-09-06T01:16:46;3.00;;;1.90;;
57345;SDS011;43181;50.974;18.244;2022-09-06T01:19:27;4.10;;;2.20;;
57345;SDS011;43181;50.974;18.244;2022-09-06T01:25:11;4.40;;;2.20;;
57345;SDS011;43181;50.974;18.244;2022-09-06T01:28:20;5.90;;;2.70;;
57345;SDS011;43181;50.974;18.244;2022-09-06T01:36:40;3.80;;;2.30;;
57345;SDS011;43181;50.974;18.244;2022-09-06T01:39:09;4.60;;;2.30;;
57345;SDS011;43181;50.974;18.244;2022-09-06T01:41:42;3.60;;;2.10;;
57345;SDS011;43181;50.974;18.244;2022-09-06T01:44:07;3.80;;;2.20;;
57345;SDS011;43181;50.974;18.244;2022-09-06T01:52:16;6.30;;;2.70;;
57345;SDS011;43181;50.974;18.244;2022-09-06T01:55:13;4.90;;;2.40;;
57345;SDS011;43181;50.974;18.244;2022-09-06T02:00:42;5.50;;;2.50;;
57345;SDS011;43181;50.974;18.244;2022-09-06T02:05:48;3.70;;;2.20;;
57345;SDS011;43181;50.974;18.244;2022-09-06T02:08:17;3.30;;;2.10;;
57345;SDS011;43181;50.974;18.244;2022-09-06T02:10:49;3.20;;;2.10;;
57345;SDS011;43181;50.974;18.244;2022-09-06T02:13:19;4.40;;;2.20;;
57345;SDS011;43181;50.974;18.244;2022-09-06T02:15:53;4.10;;;2.40;;
57345;SDS011;43181;50.974;18.244;2022-09-06T02:18:26;4.00;;;2.30;;
57345;SDS011;43181;50.974;18.244;2022-09-06T02:21:08;4.90;;;2.30;;
57345;SDS011;43181;50.974;18.244;2022-09-06T02:23:35;6.60;;;2.40;;
57345;SDS011;43181;50.974;18.244;2022-09-06T02:26:06;6.00;;;2.30;;
57345;SDS011;43181;50.974;18.244;2022-09-06T02:28:37;3.90;;;2.20;;
57345;SDS011;43181;50.974;18.244;2022-09-06T02:31:04;5.10;;;2.00;;
57345;SDS011;43181;50.974;18.244;2022-09-06T02:33:58;3.60;;;1.90;;
57345;SDS011;43181;50.974;18.244;2022-09-06T02:36:24;6.30;;;2.30;;
57345;SDS011;43181;50.974;18.244;2022-09-06T02:38:49;4.50;;;2.30;;
57345;SDS011;43181;50.974;18.244;2022-09-06T02:41:17;6.60;;;2.10;;
57345;SDS011;43181;50.974;18.244;2022-09-06T02:43:46;5.40;;;2.40;;
57345;SDS011;43181;50.974;18.244;2022-09-06T02:46:12;4.20;;;2.10;;
57345;SDS011;43181;50.974;18.244;2022-09-06T02:48:38;4.60;;;2.50;;
57345;SDS011;43181;50.974;18.244;2022-09-06T02:51:04;4.50;;;1.90;;
57345;SDS011;43181;50.974;18.244;2022-09-06T02:53:30;4.60;;;2.20;;
57345;SDS011;43181;50.974;18.244;2022-09-06T02:55:57;4.40;;;2.40;;
57345;SDS011;43181;50.974;18.244;2022-09-06T02:58:22;5.60;;;2.40;;
57345;SDS011;43181;50.974;18.244;2022-09-06T03:00:49;4.20;;;2.40;;
57345;SDS011;43181;50.974;18.244;2022-09-06T03:03:16;3.20;;;2.30;;
57345;SDS011;43181;50.974;18.244;2022-09-06T03:05:45;4.00;;;2.30;;
57345;SDS011;43181;50.974;18.244;2022-09-06T03:08:11;4.40;;;2.20;;
57345;SDS011;43181;50.974;18.244;2022-09-06T03:10:36;4.30;;;2.30;;
57345;SDS011;43181;50.974;18.244;2022-09-06T03:13:02;3.60;;;2.20;;
57345;SDS011;43181;50.974;18.244;2022-09-06T03:15:28;3.10;;;2.00;;
57345;SDS011;43181;50.974;18.244;2022-09-06T03:17:57;4.50;;;2.00;;
57345;SDS011;43181;50.974;18.244;2022-09-06T03:20:24;6.20;;;2.30;;
57345;SDS011;43181;50.974;18.244;2022-09-06T03:22:49;4.40;;;2.10;;
57345;SDS011;43181;50.974;18.244;2022-09-06T03:25:15;4.10;;;2.20;;
57345;SDS011;43181;50.974;18.244;2022-09-06T03:27:40;3.90;;;2.20;;
57345;SDS011;43181;50.974;18.244;2022-09-06T03:30:07;6.50;;;2.40;;
57345;SDS011;43181;50.974;18.244;2022-09-06T03:32:33;3.10;;;2.10;;
57345;SDS011;43181;50.974;18.244;2022-09-06T03:34:59;6.20;;;2.50;;
57345;SDS011;43181;50.974;18.244;2022-09-06T03:37:24;2.30;;;2.00;;
57345;SDS011;43181;50.974;18.244;2022-09-06T03:39:50;6.40;;;2.40;;
57345;SDS011;43181;50.974;18.244;2022-09-06T03:42:16;5.20;;;2.60;;
57345;SDS011;43181;50.974;18.244;2022-09-06T03:44:41;3.80;;;2.40;;
57345;SDS011;43181;50.974;18.244;2022-09-06T03:47:07;5.70;;;2.40;;
57345;SDS011;43181;50.974;18.244;2022-09-06T03:49:32;4.50;;;2.40;;
57345;SDS011;43181;50.974;18.244;2022-09-06T03:51:58;4.30;;;2.40;;
57345;SDS011;43181;50.974;18.244;2022-09-06T03:54:24;6.50;;;2.60;;
57345;SDS011;43181;50.974;18.244;2022-09-06T03:56:49;4.40;;;2.30;;
57345;SDS011;43181;50.974;18.244;2022-09-06T03:59:14;5.70;;;2.70;;
57345;SDS011;43181;50.974;18.244;2022-09-06T04:01:40;6.10;;;2.80;;
57345;SDS011;43181;50.974;18.244;2022-09-06T04:04:05;6.20;;;2.70;;
57345;SDS011;43181;50.974;18.244;2022-09-06T04:06:31;4.70;;;2.60;;
57345;SDS011;43181;50.974;18.244;2022-09-06T04:08:57;5.00;;;2.60;;
57345;SDS011;43181;50.974;18.244;2022-09-06T04:11:22;5.20;;;2.60;;
57345;SDS011;43181;50.974;18.244;2022-09-06T04:13:48;5.10;;;2.50;;
57345;SDS011;43181;50.974;18.244;2022-09-06T04:16:13;5.50;;;3.10;;
57345;SDS011;43181;50.974;18.244;2022-09-06T04:18:39;5.20;;;3.30;;
57345;SDS011;43181;50.974;18.244;2022-09-06T04:21:05;6.10;;;3.00;;
57345;SDS011;43181;50.974;18.244;2022-09-06T04:23:30;5.50;;;3.20;;
57345;SDS011;43181;50.974;18.244;2022-09-06T04:25:56;4.50;;;2.70;;
57345;SDS011;43181;50.974;18.244;2022-09-06T04:28:23;6.20;;;2.50;;
57345;SDS011;43181;50.974;18.244;2022-09-06T04:30:54;7.40;;;2.90;;
57345;SDS011;43181;50.974;18.244;2022-09-06T04:33:24;4.00;;;2.80;;
57345;SDS011;43181;50.974;18.244;2022-09-06T04:36:09;6.20;;;3.00;;
57345;SDS011;43181;50.974;18.244;2022-09-06T04:38:39;5.20;;;3.00;;
57345;SDS011;43181;50.974;18.244;2022-09-06T04:41:07;5.20;;;3.10;;
57345;SDS011;43181;50.974;18.244;2022-09-06T04:43:34;4.80;;;2.60;;
57345;SDS011;43181;50.974;18.244;2022-09-06T04:48:29;6.20;;;3.30;;
57345;SDS011;43181;50.974;18.244;2022-09-06T04:50:55;4.70;;;2.70;;
57345;SDS011;43181;50.974;18.244;2022-09-06T04:53:20;5.60;;;2.10;;
57345;SDS011;43181;50.974;18.244;2022-09-06T04:55:46;6.20;;;2.80;;
57345;SDS011;43181;50.974;18.244;2022-09-06T04:58:11;4.60;;;2.70;;
57345;SDS011;43181;50.974;18.244;2022-09-06T05:00:37;3.80;;;2.50;;
57345;SDS011;43181;50.974;18.244;2022-09-06T05:03:04;4.00;;;2.40;;
57345;SDS011;43181;50.974;18.244;2022-09-06T05:05:29;5.60;;;2.60;;
57345;SDS011;43181;50.974;18.244;2022-09-06T05:07:55;5.90;;;2.70;;
57345;SDS011;43181;50.974;18.244;2022-09-06T05:10:23;6.00;;;2.50;;
57345;SDS011;43181;50.974;18.244;2022-09-06T05:12:50;4.00;;;2.50;;
57345;SDS011;43181;50.974;18.244;2022-09-06T05:15:17;5.20;;;2.80;;
57345;SDS011;43181;50.974;18.244;2022-09-06T05:17:44;6.30;;;2.70;;
57345;SDS011;43181;50.974;18.244;2022-09-06T05:20:10;4.50;;;2.40;;
57345;SDS011;43181;50.974;18.244;2022-09-06T05:22:36;5.60;;;2.90;;
57345;SDS011;43181;50.974;18.244;2022-09-06T05:25:03;5.10;;;2.60;;
57345;SDS011;43181;50.974;18.244;2022-09-06T05:27:31;5.60;;;2.80;;
57345;SDS011;43181;50.974;18.244;2022-09-06T05:29:56;4.20;;;2.80;;
57345;SDS011;43181;50.974;18.244;2022-09-06T05:32:22;6.80;;;3.30;;
57345;SDS011;43181;50.974;18.244;2022-09-06T05:34:48;5.40;;;2.80;;
57345;SDS011;43181;50.974;18.244;2022-09-06T05:37:13;4.80;;;2.70;;
57345;SDS011;43181;50.974;18.244;2022-09-06T05:39:39;5.70;;;3.20;;
57345;SDS011;43181;50.974;18.244;2022-09-06T05:42:04;5.60;;;3.10;;
57345;SDS011;43181;50.974;18.244;2022-09-06T05:44:33;4.20;;;2.50;;
57345;SDS011;43181;50.974;18.244;2022-09-06T05:47:02;6.40;;;3.30;;
57345;SDS011;43181;50.974;18.244;2022-09-06T05:49:29;6.70;;;3.10;;
57345;SDS011;43181;50.974;18.244;2022-09-06T05:51:55;6.60;;;3.00;;
57345;SDS011;43181;50.974;18.244;2022-09-06T05:54:22;6.20;;;3.10;;
57345;SDS011;43181;50.974;18.244;2022-09-06T05:56:48;5.90;;;2.70;;
57345;SDS011;43181;50.974;18.244;2022-09-06T05:59:14;4.90;;;2.50;;
57345;SDS011;43181;50.974;18.244;2022-09-06T06:01:47;3.50;;;2.60;;
57345;SDS011;43181;50.974;18.244;2022-09-06T06:04:13;5.00;;;2.30;;
57345;SDS011;43181;50.974;18.244;2022-09-06T06:06:39;4.60;;;2.50;;
57345;SDS011;43181;50.974;18.244;2022-09-06T06:09:05;4.50;;;2.40;;
57345;SDS011;43181;50.974;18.244;2022-09-06T06:11:30;7.30;;;2.80;;
57345;SDS011;43181;50.974;18.244;2022-09-06T06:13:56;4.20;;;2.70;;
57345;SDS011;43181;50.974;18.244;2022-09-06T06:16:23;7.60;;;2.40;;
57345;SDS011;43181;50.974;18.244;2022-09-06T06:18:49;7.40;;;2.80;;
57345;SDS011;43181;50.974;18.244;2022-09-06T06:23:43;4.50;;;2.70;;
57345;SDS011;43181;50.974;18.244;2022-09-06T06:26:10;5.20;;;2.60;;
57345;SDS011;43181;50.974;18.244;2022-09-06T06:28:37;5.90;;;2.80;;
57345;SDS011;43181;50.974;18.244;2022-09-06T06:31:03;6.20;;;2.80;;
57345;SDS011;43181;50.974;18.244;2022-09-06T06:33:30;6.00;;;2.60;;
57345;SDS011;43181;50.974;18.244;2022-09-06T06:35:57;5.20;;;2.40;;
57345;SDS011;43181;50.974;18.244;2022-09-06T06:38:35;5.00;;;2.70;;
57345;SDS011;43181;50.974;18.244;2022-09-06T06:41:02;5.60;;;2.50;;
57345;SDS011;43181;50.974;18.244;2022-09-06T06:43:28;3.50;;;2.10;;
57345;SDS011;43181;50.974;18.244;2022-09-06T06:46:03;3.90;;;2.20;;
57345;SDS011;43181;50.974;18.244;2022-09-06T06:48:30;4.70;;;2.40;;
57345;SDS011;43181;50.974;18.244;2022-09-06T06:50:56;5.50;;;2.80;;
57345;SDS011;43181;50.974;18.244;2022-09-06T06:53:22;6.30;;;2.50;;
57345;SDS011;43181;50.974;18.244;2022-09-06T06:55:48;3.90;;;2.20;;
57345;SDS011;43181;50.974;18.244;2022-09-06T06:58:14;4.20;;;2.10;;
57345;SDS011;43181;50.974;18.244;2022-09-06T07:00:40;3.20;;;1.90;;
57345;SDS011;43181;50.974;18.244;2022-09-06T07:03:07;3.40;;;2.20;;
57345;SDS011;43181;50.974;18.244;2022-09-06T07:05:33;3.10;;;1.90;;
57345;SDS011;43181;50.974;18.244;2022-09-06T07:07:59;3.10;;;2.00;;
57345;SDS011;43181;50.974;18.244;2022-09-06T07:10:25;3.30;;;1.90;;
57345;SDS011;43181;50.974;18.244;2022-09-06T07:12:50;3.00;;;2.00;;
57345;SDS011;43181;50.974;18.244;2022-09-06T07:15:16;3.80;;;2.00;;
57345;SDS011;43181;50.974;18.244;2022-09-06T07:17:42;2.80;;;1.70;;
57345;SDS011;43181;50.974;18.244;2022-09-06T07:20:08;4.00;;;1.80;;
57345;SDS011;43181;50.974;18.244;2022-09-06T07:22:35;3.40;;;2.10;;
57345;SDS011;43181;50.974;18.244;2022-09-06T07:25:01;5.50;;;2.50;;
57345;SDS011;43181;50.974;18.244;2022-09-06T07:27:27;2.80;;;1.80;;
57345;SDS011;43181;50.974;18.244;2022-09-06T07:29:55;4.50;;;2.10;;
57345;SDS011;43181;50.974;18.244;2022-09-06T07:32:20;5.30;;;2.00;;
57345;SDS011;43181;50.974;18.244;2022-09-06T07:34:46;4.00;;;2.00;;
57345;SDS011;43181;50.974;18.244;2022-09-06T07:37:12;3.60;;;1.70;;
57345;SDS011;43181;50.974;18.244;2022-09-06T07:39:38;3.50;;;2.10;;
57345;SDS011;43181;50.974;18.244;2022-09-06T07:42:04;3.30;;;1.90;;
57345;SDS011;43181;50.974;18.244;2022-09-06T07:44:30;3.50;;;1.80;;
57345;SDS011;43181;50.974;18.244;2022-09-06T07:46:56;2.80;;;1.80;;
57345;SDS011;43181;50.974;18.244;2022-09-06T07:49:21;2.90;;;1.80;;
57345;SDS011;43181;50.974;18.244;2022-09-06T07:51:47;3.10;;;1.70;;
57345;SDS011;43181;50.974;18.244;2022-09-06T07:54:13;3.00;;;1.40;;
57345;SDS011;43181;50.974;18.244;2022-09-06T07:56:39;3.40;;;1.70;;
57345;SDS011;43181;50.974;18.244;2022-09-06T07:59:05;3.50;;;1.90;;
57345;SDS011;43181;50.974;18.244;2022-09-06T08:01:31;3.40;;;1.60;;
57345;SDS011;43181;50.974;18.244;2022-09-06T08:04:10;2.90;;;1.60;;
57345;SDS011;43181;50.974;18.244;2022-09-06T08:06:38;3.10;;;1.60;;
57345;SDS011;43181;50.974;18.244;2022-09-06T08:09:08;3.90;;;1.50;;
57345;SDS011;43181;50.974;18.244;2022-09-06T08:11:34;2.00;;;1.30;;
57345;SDS011;43181;50.974;18.244;2022-09-06T08:14:02;3.90;;;1.70;;
57345;SDS011;43181;50.974;18.244;2022-09-06T08:16:32;1.40;;;1.10;;
57345;SDS011;43181;50.974;18.244;2022-09-06T08:19:00;1.90;;;1.60;;
57345;SDS011;43181;50.974;18.244;2022-09-06T08:21:28;2.40;;;1.40;;
57345;SDS011;43181;50.974;18.244;2022-09-06T08:24:00;3.50;;;1.40;;
57345;SDS011;43181;50.974;18.244;2022-09-06T08:26:27;1.60;;;1.20;;
57345;SDS011;43181;50.974;18.244;2022-09-06T08:28:58;1.90;;;1.00;;
57345;SDS011;43181;50.974;18.244;2022-09-06T08:33:54;2.50;;;1.30;;
57345;SDS011;43181;50.974;18.244;2022-09-06T08:36:20;1.50;;;0.90;;
57345;SDS011;43181;50.974;18.244;2022-09-06T08:38:45;3.90;;;1.30;;
57345;SDS011;43181;50.974;18.244;2022-09-06T08:41:17;1.70;;;1.10;;
57345;SDS011;43181;50.974;18.244;2022-09-06T08:46:18;1.80;;;1.20;;
57345;SDS011;43181;50.974;18.244;2022-09-06T08:48:47;2.10;;;1.20;;
57345;SDS011;43181;50.974;18.244;2022-09-06T08:51:36;2.50;;;1.20;;
57345;SDS011;43181;50.974;18.244;2022-09-06T08:54:12;1.30;;;1.00;;
57345;SDS011;43181;50.974;18.244;2022-09-06T08:59:54;2.70;;;1.00;;
57345;SDS011;43181;50.974;18.244;2022-09-06T09:02:24;1.70;;;1.10;;
57345;SDS011;43181;50.974;18.244;2022-09-06T09:09:58;1.90;;;0.90;;
57345;SDS011;43181;50.974;18.244;2022-09-06T09:12:25;1.10;;;1.00;;
57345;SDS011;43181;50.974;18.244;2022-09-06T09:14:53;2.10;;;1.20;;
57345;SDS011;43181;50.974;18.244;2022-09-06T09:17:26;3.10;;;1.10;;
57345;SDS011;43181;50.974;18.244;2022-09-06T09:19:54;1.30;;;1.00;;
57345;SDS011;43181;50.974;18.244;2022-09-06T09:22:20;1.50;;;1.00;;
57345;SDS011;43181;50.974;18.244;2022-09-06T09:24:47;2.20;;;1.20;;
57345;SDS011;43181;50.974;18.244;2022-09-06T09:27:17;2.80;;;1.00;;
57345;SDS011;43181;50.974;18.244;2022-09-06T09:32:31;3.50;;;0.90;;
57345;SDS011;43181;50.974;18.244;2022-09-06T09:37:44;2.60;;;1.10;;
57345;SDS011;43181;50.974;18.244;2022-09-06T09:40:17;1.90;;;1.00;;
57345;SDS011;43181;50.974;18.244;2022-09-06T09:42:55;2.60;;;1.20;;
57345;SDS011;43181;50.974;18.244;2022-09-06T09:45:33;1.90;;;0.90;;
57345;SDS011;43181;50.974;18.244;2022-09-06T09:48:14;1.60;;;0.90;;
57345;SDS011;43181;50.974;18.244;2022-09-06T09:50:42;1.70;;;0.90;;
57345;SDS011;43181;50.974;18.244;2022-09-06T09:53:08;1.40;;;1.00;;
57345;SDS011;43181;50.974;18.244;2022-09-06T09:55:36;4.50;;;1.10;;
57345;SDS011;43181;50.974;18.244;2022-09-06T09:58:02;2.60;;;1.00;;
57345;SDS011;43181;50.974;18.244;2022-09-06T10:00:46;2.90;;;1.00;;
57345;SDS011;43181;50.974;18.244;2022-09-06T10:03:12;2.00;;;1.10;;
57345;SDS011;43181;50.974;18.244;2022-09-06T10:05:39;1.50;;;1.10;;
57345;SDS011;43181;50.974;18.244;2022-09-06T10:08:08;1.20;;;0.90;;
57345;SDS011;43181;50.974;18.244;2022-09-06T10:10:38;2.70;;;0.90;;
57345;SDS011;43181;50.974;18.244;2022-09-06T10:15:39;2.10;;;1.00;;
57345;SDS011;43181;50.974;18.244;2022-09-06T10:18:05;1.20;;;0.80;;
57345;SDS011;43181;50.974;18.244;2022-09-06T10:20:38;1.10;;;0.70;;
57345;SDS011;43181;50.974;18.244;2022-09-06T10:23:09;2.40;;;0.90;;
57345;SDS011;43181;50.974;18.244;2022-09-06T10:28:26;2.70;;;0.90;;
57345;SDS011;43181;50.974;18.244;2022-09-06T10:36:37;0.70;;;0.60;;
57345;SDS011;43181;50.974;18.244;2022-09-06T10:39:46;0.90;;;0.80;;
57345;SDS011;43181;50.974;18.244;2022-09-06T10:44:54;1.90;;;0.80;;
57345;SDS011;43181;50.974;18.244;2022-09-06T10:58:31;2.10;;;1.00;;
57345;SDS011;43181;50.974;18.244;2022-09-06T11:00:58;1.30;;;0.80;;
57345;SDS011;43181;50.974;18.244;2022-09-06T11:03:31;0.90;;;0.80;;
57345;SDS011;43181;50.974;18.244;2022-09-06T11:06:06;1.20;;;0.70;;
57345;SDS011;43181;50.974;18.244;2022-09-06T11:11:06;1.00;;;0.90;;
57345;SDS011;43181;50.974;18.244;2022-09-06T11:13:36;1.40;;;0.90;;
57345;SDS011;43181;50.974;18.244;2022-09-06T11:18:47;1.10;;;0.80;;
57345;SDS011;43181;50.974;18.244;2022-09-06T11:30:01;2.80;;;1.00;;
57345;SDS011;43181;50.974;18.244;2022-09-06T11:32:29;2.60;;;0.80;;
57345;SDS011;43181;50.974;18.244;2022-09-06T11:35:23;1.20;;;0.80;;
57345;SDS011;43181;50.974;18.244;2022-09-06T11:38:04;2.10;;;1.10;;
57345;SDS011;43181;50.974;18.244;2022-09-06T11:40:39;1.30;;;1.00;;
57345;SDS011;43181;50.974;18.244;2022-09-06T11:43:08;0.80;;;0.70;;
57345;SDS011;43181;50.974;18.244;2022-09-06T11:45:49;2.20;;;0.90;;
57345;SDS011;43181;50.974;18.244;2022-09-06T11:53:24;1.10;;;1.00;;
57345;SDS011;43181;50.974;18.244;2022-09-06T11:58:58;2.40;;;1.00;;
57345;SDS011;43181;50.974;18.244;2022-09-06T12:02:06;3.30;;;1.10;;
57345;SDS011;43181;50.974;18.244;2022-09-06T12:07:23;1.50;;;1.30;;
57345;SDS011;43181;50.974;18.244;2022-09-06T12:09:52;2.30;;;1.00;;
57345;SDS011;43181;50.974;18.244;2022-09-06T12:12:42;2.00;;;1.30;;
57345;SDS011;43181;50.974;18.244;2022-09-06T12:17:54;2.40;;;0.90;;
57345;SDS011;43181;50.974;18.244;2022-09-06T12:26:01;1.70;;;1.30;;
57345;SDS011;43181;50.974;18.244;2022-09-06T12:28:41;1.60;;;1.00;;
57345;SDS011;43181;50.974;18.244;2022-09-06T12:34:18;1.80;;;0.90;;
57345;SDS011;43181;50.974;18.244;2022-09-06T12:36:48;1.30;;;0.90;;
57345;SDS011;43181;50.974;18.244;2022-09-06T12:39:16;1.70;;;0.90;;
57345;SDS011;43181;50.974;18.244;2022-09-06T12:41:45;1.70;;;1.10;;
57345;SDS011;43181;50.974;18.244;2022-09-06T12:44:14;1.20;;;1.10;;
57345;SDS011;43181;50.974;18.244;2022-09-06T12:46:44;2.00;;;0.90;;
57345;SDS011;43181;50.974;18.244;2022-09-06T12:49:12;1.80;;;0.80;;
57345;SDS011;43181;50.974;18.244;2022-09-06T12:51:40;1.10;;;0.90;;
57345;SDS011;43181;50.974;18.244;2022-09-06T12:54:22;1.10;;;0.90;;
57345;SDS011;43181;50.974;18.244;2022-09-06T12:56:49;1.40;;;1.10;;
57345;SDS011;43181;50.974;18.244;2022-09-06T13:02:05;1.40;;;0.90;;
57345;SDS011;43181;50.974;18.244;2022-09-06T13:04:39;2.80;;;1.20;;
57345;SDS011;43181;50.974;18.244;2022-09-06T13:07:08;1.60;;;1.10;;
57345;SDS011;43181;50.974;18.244;2022-09-06T13:09:36;2.20;;;1.00;;
57345;SDS011;43181;50.974;18.244;2022-09-06T13:12:06;2.80;;;1.30;;
57345;SDS011;43181;50.974;18.244;2022-09-06T13:14:33;3.20;;;1.50;;
57345;SDS011;43181;50.974;18.244;2022-09-06T13:17:02;4.40;;;1.20;;
57345;SDS011;43181;50.974;18.244;2022-09-06T13:19:34;4.40;;;1.60;;
57345;SDS011;43181;50.974;18.244;2022-09-06T13:22:02;2.80;;;1.20;;
57345;SDS011;43181;50.974;18.244;2022-09-06T13:27:00;2.50;;;1.20;;
57345;SDS011;43181;50.974;18.244;2022-09-06T13:29:29;1.60;;;1.10;;
57345;SDS011;43181;50.974;18.244;2022-09-06T13:31:57;1.90;;;1.10;;
57345;SDS011;43181;50.974;18.244;2022-09-06T13:34:24;1.80;;;1.40;;
57345;SDS011;43181;50.974;18.244;2022-09-06T13:37:00;3.00;;;1.20;;
57345;SDS011;43181;50.974;18.244;2022-09-06T13:39:31;1.90;;;1.10;;
57345;SDS011;43181;50.974;18.244;2022-09-06T13:42:22;2.40;;;1.30;;
57345;SDS011;43181;50.974;18.244;2022-09-06T13:45:19;1.90;;;1.10;;
57345;SDS011;43181;50.974;18.244;2022-09-06T13:47:48;1.10;;;0.90;;
57345;SDS011;43181;50.974;18.244;2022-09-06T13:50:14;2.30;;;1.40;;
57345;SDS011;43181;50.974;18.244;2022-09-06T13:52:40;2.20;;;1.50;;
57345;SDS011;43181;50.974;18.244;2022-09-06T13:55:06;6.70;;;3.50;;
57345;SDS011;43181;50.974;18.244;2022-09-06T13:57:31;3.90;;;1.60;;
57345;SDS011;43181;50.974;18.244;2022-09-06T13:59:57;1.70;;;1.10;;
57345;SDS011;43181;50.974;18.244;2022-09-06T14:02:23;3.60;;;1.20;;
57345;SDS011;43181;50.974;18.244;2022-09-06T14:04:49;4.10;;;1.30;;
57345;SDS011;43181;50.974;18.244;2022-09-06T14:07:15;3.90;;;1.20;;
57345;SDS011;43181;50.974;18.244;2022-09-06T14:09:42;2.90;;;1.10;;
57345;SDS011;43181;50.974;18.244;2022-09-06T14:14:55;2.20;;;1.20;;
57345;SDS011;43181;50.974;18.244;2022-09-06T14:17:20;3.20;;;1.40;;
57345;SDS011;43181;50.974;18.244;2022-09-06T14:19:47;4.00;;;1.40;;
57345;SDS011;43181;50.974;18.244;2022-09-06T14:22:13;2.30;;;1.40;;
57345;SDS011;43181;50.974;18.244;2022-09-06T14:24:39;2.70;;;1.10;;
57345;SDS011;43181;50.974;18.244;2022-09-06T14:27:04;5.30;;;1.20;;
57345;SDS011;43181;50.974;18.244;2022-09-06T14:29:31;2.30;;;1.30;;
57345;SDS011;43181;50.974;18.244;2022-09-06T14:31:58;4.40;;;1.10;;
57345;SDS011;43181;50.974;18.244;2022-09-06T14:34:26;2.20;;;1.20;;
57345;SDS011;43181;50.974;18.244;2022-09-06T14:36:53;6.10;;;1.30;;
57345;SDS011;43181;50.974;18.244;2022-09-06T14:39:18;3.30;;;1.20;;
57345;SDS011;43181;50.974;18.244;2022-09-06T14:41:43;3.00;;;1.30;;
57345;SDS011;43181;50.974;18.244;2022-09-06T14:44:09;2.80;;;1.30;;
57345;SDS011;43181;50.974;18.244;2022-09-06T14:46:35;3.70;;;1.10;;
57345;SDS011;43181;50.974;18.244;2022-09-06T14:49:05;2.90;;;1.00;;
57345;SDS011;43181;50.974;18.244;2022-09-06T14:51:34;2.30;;;1.10;;
57345;SDS011;43181;50.974;18.244;2022-09-06T14:54:03;2.20;;;1.40;;
57345;SDS011;43181;50.974;18.244;2022-09-06T14:56:30;2.40;;;1.10;;
57345;SDS011;43181;50.974;18.244;2022-09-06T14:58:56;3.30;;;2.20;;
57345;SDS011;43181;50.974;18.244;2022-09-06T15:01:25;2.30;;;1.10;;
57345;SDS011;43181;50.974;18.244;2022-09-06T15:03:53;4.90;;;1.40;;
57345;SDS011;43181;50.974;18.244;2022-09-06T15:06:21;3.60;;;1.40;;
57345;SDS011;43181;50.974;18.244;2022-09-06T15:08:47;2.00;;;1.10;;
57345;SDS011;43181;50.974;18.244;2022-09-06T15:11:14;1.50;;;1.10;;
57345;SDS011;43181;50.974;18.244;2022-09-06T15:13:51;3.50;;;1.20;;
57345;SDS011;43181;50.974;18.244;2022-09-06T15:16:17;5.60;;;1.60;;
57345;SDS011;43181;50.974;18.244;2022-09-06T15:18:42;5.20;;;1.40;;
57345;SDS011;43181;50.974;18.244;2022-09-06T15:21:11;2.20;;;1.40;;
57345;SDS011;43181;50.974;18.244;2022-09-06T15:23:38;2.50;;;1.40;;
57345;SDS011;43181;50.974;18.244;2022-09-06T15:26:07;2.90;;;1.30;;
57345;SDS011;43181;50.974;18.244;2022-09-06T15:28:37;4.70;;;1.50;;
57345;SDS011;43181;50.974;18.244;2022-09-06T15:31:04;3.30;;;1.40;;
57345;SDS011;43181;50.974;18.244;2022-09-06T15:33:31;2.90;;;1.30;;
57345;SDS011;43181;50.974;18.244;2022-09-06T15:35:57;1.80;;;1.20;;
57345;SDS011;43181;50.974;18.244;2022-09-06T15:38:30;4.60;;;1.60;;
57345;SDS011;43181;50.974;18.244;2022-09-06T15:41:03;4.70;;;1.40;;
57345;SDS011;43181;50.974;18.244;2022-09-06T15:43:37;2.40;;;1.50;;
57345;SDS011;43181;50.974;18.244;2022-09-06T15:46:06;3.90;;;1.20;;
57345;SDS011;43181;50.974;18.244;2022-09-06T15:48:40;2.20;;;1.20;;
57345;SDS011;43181;50.974;18.244;2022-09-06T15:51:07;2.30;;;1.40;;
57345;SDS011;43181;50.974;18.244;2022-09-06T15:53:33;3.10;;;1.40;;
57345;SDS011;43181;50.974;18.244;2022-09-06T15:55:59;1.50;;;1.30;;
57345;SDS011;43181;50.974;18.244;2022-09-06T15:58:26;2.80;;;1.30;;
57345;SDS011;43181;50.974;18.244;2022-09-06T16:01:06;1.70;;;1.00;;
57345;SDS011;43181;50.974;18.244;2022-09-06T16:03:36;2.40;;;1.40;;
57345;SDS011;43181;50.974;18.244;2022-09-06T16:06:08;1.40;;;1.10;;
57345;SDS011;43181;50.974;18.244;2022-09-06T16:08:36;3.90;;;1.40;;
57345;SDS011;43181;50.974;18.244;2022-09-06T16:11:05;3.20;;;1.40;;
57345;SDS011;43181;50.974;18.244;2022-09-06T16:13:36;2.50;;;1.40;;
57345;SDS011;43181;50.974;18.244;2022-09-06T16:16:04;3.10;;;1.50;;
57345;SDS011;43181;50.974;18.244;2022-09-06T16:18:33;3.40;;;1.30;;
57345;SDS011;43181;50.974;18.244;2022-09-06T16:21:07;2.20;;;1.40;;
57345;SDS011;43181;50.974;18.244;2022-09-06T16:23:35;1.70;;;1.20;;
57345;SDS011;43181;50.974;18.244;2022-09-06T16:26:05;2.00;;;1.20;;
57345;SDS011;43181;50.974;18.244;2022-09-06T16:28:32;2.60;;;1.50;;
57345;SDS011;43181;50.974;18.244;2022-09-06T16:30:59;4.20;;;1.30;;
57345;SDS011;43181;50.974;18.244;2022-09-06T16:33:27;4.80;;;2.10;;
57345;SDS011;43181;50.974;18.244;2022-09-06T16:35:53;6.40;;;3.60;;
57345;SDS011;43181;50.974;18.244;2022-09-06T16:38:18;5.50;;;2.80;;
57345;SDS011;43181;50.974;18.244;2022-09-06T16:40:46;7.90;;;3.40;;
57345;SDS011;43181;50.974;18.244;2022-09-06T16:43:11;10.60;;;4.90;;
57345;SDS011;43181;50.974;18.244;2022-09-06T16:45:38;5.70;;;3.30;;